Time;durP1;ratioP1;P1;durP2;ratioP2;P2;SDS_P1;SDS_P2;PMS_P1;PMS_P2;Temp;Humidity;BMP_temperature;BMP_pressure;BME280_temperature;BME280_humidity;BME280_pressure;Samples;Min_cycle;Max_cycle;Signal;HPM_P1;HPM_P2
2021/09/18 00:01:49;;;;;;;20.93;8.03;;;;;;;20.73;61.17;94747.56;5045862;28;20208;-66
2021/09/18 00:04:16;;;;;;;17.47;8.30;;;;;;;20.98;60.35;94743.94;5034879;28;20777;-67
2021/09/18 00:06:44;;;;;;;30.50;8.10;;;;;;;21.30;59.83;94749.72;5041186;28;20184;-67
2021/09/18 00:09:11;;;;;;;21.30;8.40;;;;;;;21.51;59.13;94740.63;5039503;28;20197;-66
2021/09/18 00:11:37;;;;;;;24.97;8.60;;;;;;;21.53;61.44;94753.63;5052994;28;20192;-68
2021/09/18 00:14:05;;;;;;;24.50;8.03;;;;;;;21.28;63.52;94754.59;5060844;28;20196;-66
2021/09/18 00:16:33;;;;;;;23.00;8.17;;;;;;;21.37;62.57;94756.09;5060121;28;20204;-67
2021/09/18 00:18:59;;;;;;;26.97;8.77;;;;;;;21.23;63.31;94757.44;5060074;28;20200;-67
2021/09/18 00:21:26;;;;;;;19.03;8.50;;;;;;;21.27;62.83;94761.03;5051108;28;20211;-68
2021/09/18 00:23:54;;;;;;;20.37;8.83;;;;;;;21.36;62.48;94759.06;5047126;28;20750;-68
2021/09/18 00:26:22;;;;;;;27.10;8.77;;;;;;;21.29;62.56;94740.97;5042477;28;20192;-69
2021/09/18 00:28:49;;;;;;;21.23;8.50;;;;;;;21.40;63.21;94734.13;5042250;28;20220;-65
2021/09/18 00:31:15;;;;;;;27.83;9.33;;;;;;;21.46;63.31;94742.72;5049508;28;20193;-68
2021/09/18 00:33:42;;;;;;;21.17;8.40;;;;;;;21.43;63.00;94738.00;5053552;28;20227;-67
2021/09/18 00:36:09;;;;;;;24.87;9.70;;;;;;;21.43;62.67;94748.66;5047756;28;20207;-68
2021/09/18 00:38:36;;;;;;;21.03;9.33;;;;;;;21.44;62.21;94755.56;5053777;28;20659;-67
2021/09/18 00:41:03;;;;;;;24.13;10.47;;;;;;;21.39;62.25;94753.09;5047420;28;20681;-68
2021/09/18 00:43:30;;;;;;;22.43;10.57;;;;;;;21.30;62.67;94755.03;5052048;28;20620;-68
2021/09/18 00:45:57;;;;;;;20.63;9.63;;;;;;;21.34;63.01;94750.63;5053849;28;20580;-67
2021/09/18 00:48:23;;;;;;;24.43;10.17;;;;;;;21.31;63.30;94756.63;5053477;28;20206;-68
2021/09/18 00:50:50;;;;;;;28.83;12.00;;;;;;;21.22;62.82;94769.22;5050380;28;20197;-69
2021/09/18 00:53:17;;;;;;;31.83;15.77;;;;;;;20.87;64.32;94779.28;5034827;28;20201;-67
2021/09/18 00:55:44;;;;;;;33.53;18.93;;;;;;;20.82;64.27;94777.59;5047829;28;20216;-68
2021/09/18 00:58:11;;;;;;;35.70;14.40;;;;;;;20.82;63.91;94782.91;5045599;28;20201;-67
2021/09/18 01:00:38;;;;;;;30.00;14.53;;;;;;;21.09;63.20;94789.69;5048843;28;20561;-68
2021/09/18 01:03:05;;;;;;;26.87;12.73;;;;;;;20.97;63.56;94801.00;5053257;28;20215;-69
2021/09/18 01:05:33;;;;;;;23.60;11.80;;;;;;;20.60;64.00;94827.69;5037091;28;20204;-68
2021/09/18 01:08:01;;;;;;;28.10;10.00;;;;;;;20.69;64.37;94834.50;5040688;28;20197;-70
2021/09/18 01:10:28;;;;;;;20.80;8.90;;;;;;;20.54;64.97;94837.72;5037998;28;20197;-69
2021/09/18 01:13:01;;;;;;;21.27;9.17;;;;;;;20.51;66.67;94841.00;5038064;28;20292;-68
2021/09/18 01:15:30;;;;;;;21.83;8.53;;;;;;;20.07;68.47;94846.72;5038195;28;20193;-66
2021/09/18 01:17:58;;;;;;;22.77;8.17;;;;;;;20.27;68.10;94835.44;5051059;28;20199;-69
2021/09/18 01:20:27;;;;;;;21.20;8.07;;;;;;;20.44;67.56;94818.63;5037152;28;21022;-68
2021/09/18 01:22:59;;;;;;;26.23;8.40;;;;;;;20.73;66.35;94814.13;5050253;28;20231;-67
2021/09/18 01:25:29;;;;;;;25.47;7.90;;;;;;;20.65;67.81;94806.19;5036733;28;20596;-68
2021/09/18 01:27:56;;;;;;;18.40;7.93;;;;;;;20.72;67.74;94801.94;5038872;28;20212;-66
2021/09/18 01:30:27;;;;;;;20.53;8.17;;;;;;;20.65;68.43;94788.34;5052695;28;20203;-67
2021/09/18 01:32:57;;;;;;;22.37;7.20;;;;;;;20.62;67.83;94788.97;5052096;28;20195;-67
2021/09/18 01:35:24;;;;;;;20.13;7.90;;;;;;;20.39;68.62;94773.56;5052842;28;20612;-67
2021/09/18 01:37:51;;;;;;;25.77;8.57;;;;;;;20.53;69.16;94771.50;5041857;28;20200;-66
2021/09/18 01:40:24;;;;;;;20.27;8.03;;;;;;;20.65;69.59;94783.00;5042361;28;20226;-67
2021/09/18 01:42:52;;;;;;;20.67;7.63;;;;;;;20.74;69.41;94759.78;5052161;28;20212;-68
2021/09/18 01:45:19;;;;;;;20.63;7.53;;;;;;;20.58;69.73;94766.78;5048805;28;20594;-67
2021/09/18 01:47:49;;;;;;;24.37;8.70;;;;;;;20.57;70.30;94759.88;5052382;28;20223;-67
2021/09/18 01:50:25;;;;;;;22.27;8.23;;;;;;;20.69;70.06;94756.53;5052452;28;20204;-67
2021/09/18 01:52:55;;;;;;;18.73;7.60;;;;;;;20.66;70.03;94762.47;5052126;28;20192;-67
2021/09/18 01:55:22;;;;;;;23.00;8.43;;;;;;;20.56;70.40;94758.31;5040472;28;20593;-68
2021/09/18 01:57:52;;;;;;;23.20;8.60;;;;;;;20.73;69.68;94768.84;5050006;28;20203;-67
2021/09/18 02:00:20;;;;;;;18.27;7.93;;;;;;;20.82;69.56;94766.16;5041424;28;20205;-66
2021/09/18 02:02:47;;;;;;;20.77;7.90;;;;;;;20.95;68.93;94759.81;5048679;28;20283;-69
2021/09/18 02:05:21;;;;;;;22.97;8.23;;;;;;;20.69;70.53;94770.59;5052446;28;20744;-67
2021/09/18 02:07:48;;;;;;;25.40;8.67;;;;;;;20.51;70.42;94771.78;5051620;28;20199;-67
2021/09/18 02:10:18;;;;;;;27.80;8.80;;;;;;;20.45;70.86;94766.97;5052296;28;20200;-68
2021/09/18 02:12:45;;;;;;;20.60;7.90;;;;;;;20.49;70.60;94762.56;5051332;28;20207;-68
2021/09/18 02:15:16;;;;;;;22.27;8.37;;;;;;;20.57;70.05;94765.19;5052269;28;20278;-68
2021/09/18 02:17:43;;;;;;;22.40;8.47;;;;;;;20.66;70.54;94763.25;5051874;28;23238;-69
2021/09/18 02:20:13;;;;;;;21.93;8.07;;;;;;;20.78;70.33;94760.69;5052235;28;20699;-68
2021/09/18 02:22:41;;;;;;;22.00;9.10;;;;;;;20.67;71.08;94764.06;5051940;28;20203;-67
2021/09/18 02:25:10;;;;;;;18.80;8.13;;;;;;;20.69;71.08;94767.19;5051833;28;20216;-66
2021/09/18 02:27:37;;;;;;;19.47;8.47;;;;;;;20.47;72.08;94764.78;5051863;28;20216;-71
2021/09/18 02:30:10;;;;;;;23.30;9.00;;;;;;;20.49;72.31;94768.66;5057183;28;20189;-68
2021/09/18 02:32:37;;;;;;;23.70;9.47;;;;;;;20.43;72.63;94754.00;5056504;28;20275;-69
2021/09/18 02:35:07;;;;;;;21.57;8.47;;;;;;;20.47;71.76;94746.94;5059212;28;20192;-67
2021/09/18 02:37:34;;;;;;;21.10;8.33;;;;;;;20.49;71.10;94747.38;5059820;28;20279;-69
2021/09/18 02:40:03;;;;;;;20.07;9.03;;;;;;;20.48;71.40;94751.13;5058727;28;20296;-69
2021/09/18 02:42:31;;;;;;;21.07;9.57;;;;;;;20.35;71.87;94743.34;5052129;28;20189;-70
2021/09/18 02:44:58;;;;;;;16.07;8.97;;;;;;;20.51;71.20;94744.41;5051471;28;20240;-71
2021/09/18 02:47:25;;;;;;;21.00;9.73;;;;;;;20.52;70.85;94738.75;5051566;28;20196;-71
2021/09/18 02:49:52;;;;;;;26.77;10.00;;;;;;;20.52;71.19;94741.41;5042521;28;20225;-68
2021/09/18 02:52:19;;;;;;;29.70;10.40;;;;;;;20.47;71.25;94738.94;5045331;28;20287;-67
2021/09/18 02:54:46;;;;;;;26.03;9.80;;;;;;;20.43;71.60;94743.34;5051279;28;20677;-69
2021/09/18 02:57:13;;;;;;;24.03;10.27;;;;;;;19.84;73.67;94736.31;5051109;28;20208;-70
2021/09/18 02:59:39;;;;;;;21.83;10.77;;;;;;;20.00;73.04;94740.00;5050892;28;20196;-70
2021/09/18 03:02:06;;;;;;;24.87;9.83;;;;;;;20.15;72.36;94742.16;5049869;28;20592;-69
2021/09/18 03:04:33;;;;;;;19.83;10.80;;;;;;;20.17;72.02;94737.34;5051053;28;20220;-68
2021/09/18 03:07:00;;;;;;;22.60;10.43;;;;;;;19.98;72.33;94737.66;5050889;28;20197;-68
2021/09/18 03:09:27;;;;;;;25.30;10.43;;;;;;;19.60;73.21;94730.72;5050981;28;20196;-68
2021/09/18 03:11:54;;;;;;;18.97;10.40;;;;;;;19.55;73.78;94723.69;5050789;28;20247;-68
2021/09/18 03:14:21;;;;;;;23.27;10.47;;;;;;;19.61;74.09;94735.75;5051139;28;20212;-68
2021/09/18 03:16:48;;;;;;;21.77;11.70;;;;;;;19.78;73.52;94742.91;5050256;28;20294;-68
2021/09/18 03:19:15;;;;;;;26.87;11.67;;;;;;;19.66;73.54;94726.81;5048949;28;20242;-68
2021/09/18 03:21:42;;;;;;;21.90;11.27;;;;;;;19.56;74.23;94724.50;5050369;28;20200;-68
2021/09/18 03:24:09;;;;;;;19.43;10.87;;;;;;;19.45;74.30;94709.97;5050547;28;20230;-69
2021/09/18 03:26:36;;;;;;;25.87;11.13;;;;;;;19.50;74.67;94702.63;5049788;28;20196;-67
2021/09/18 03:29:03;;;;;;;24.03;12.13;;;;;;;19.54;74.82;94716.06;5050297;28;20193;-68
2021/09/18 03:31:30;;;;;;;30.90;12.50;;;;;;;19.34;75.24;94716.69;5049682;28;20291;-68
2021/09/18 03:33:57;;;;;;;20.43;10.80;;;;;;;19.40;75.87;94720.72;5050672;28;20196;-70
2021/09/18 03:36:24;;;;;;;24.30;11.37;;;;;;;19.95;73.42;94717.03;5050287;28;20206;-68
2021/09/18 03:38:51;;;;;;;23.23;11.30;;;;;;;19.91;73.25;94712.66;5050674;28;20220;-68
2021/09/18 03:41:18;;;;;;;29.33;11.37;;;;;;;19.67;74.03;94709.78;5049961;28;20453;-70
2021/09/18 03:43:45;;;;;;;24.03;11.00;;;;;;;19.26;75.90;94709.47;5050433;28;20489;-69
2021/09/18 03:46:11;;;;;;;27.53;12.83;;;;;;;19.38;75.86;94704.34;5051047;28;20203;-67
2021/09/18 03:48:39;;;;;;;25.50;12.03;;;;;;;19.40;75.81;94694.16;5055025;28;20240;-68
2021/09/18 03:51:06;;;;;;;26.53;11.50;;;;;;;19.60;75.65;94693.50;5030870;28;20204;-67
2021/09/18 03:53:33;;;;;;;24.83;11.17;;;;;;;19.38;76.38;94707.78;5030425;28;20283;-69
2021/09/18 03:56:00;;;;;;;22.73;10.53;;;;;;;19.30;76.93;94702.44;5046539;28;20471;-67
2021/09/18 03:58:27;;;;;;;21.33;10.33;;;;;;;19.46;76.67;94714.97;5050613;28;20188;-67
2021/09/18 04:00:53;;;;;;;22.77;9.47;;;;;;;19.32;77.27;94716.22;5034187;28;20201;-67
2021/09/18 04:03:20;;;;;;;26.83;11.13;;;;;;;19.48;77.09;94723.41;5040328;28;20454;-68
2021/09/18 04:05:52;;;;;;;25.33;10.70;;;;;;;19.62;76.44;94723.22;5048669;28;20192;-66
2021/09/18 04:08:19;;;;;;;27.13;10.43;;;;;;;19.33;77.56;94720.44;5050363;28;20196;-68
2021/09/18 04:10:46;;;;;;;19.90;9.70;;;;;;;19.29;77.89;94719.50;5049703;28;20443;-68
2021/09/18 04:13:13;;;;;;;27.23;10.23;;;;;;;19.50;76.64;94723.09;5050036;28;20662;-68
2021/09/18 04:15:40;;;;;;;26.40;10.17;;;;;;;19.70;75.42;94730.41;5050304;28;20207;-66
2021/09/18 04:18:06;;;;;;;21.43;9.80;;;;;;;19.68;74.93;94721.97;5049488;28;20196;-68
2021/09/18 04:20:34;;;;;;;24.77;9.90;;;;;;;20.01;74.35;94720.31;5049689;28;20290;-68
2021/09/18 04:23:01;;;;;;;21.83;10.53;;;;;;;19.97;74.30;94724.69;5049491;28;20279;-69
2021/09/18 04:25:28;;;;;;;23.70;9.83;;;;;;;20.05;73.33;94731.88;5050117;28;20323;-67
2021/09/18 04:27:55;;;;;;;21.93;10.33;;;;;;;19.81;74.93;94726.31;5044636;28;20575;-69
2021/09/18 04:30:22;;;;;;;37.57;11.17;;;;;;;19.50;77.12;94731.06;5042398;28;20200;-69
2021/09/18 04:32:49;;;;;;;26.73;10.60;;;;;;;19.75;75.42;94728.34;5040413;28;20193;-68
2021/09/18 04:35:16;;;;;;;20.30;10.60;;;;;;;19.76;75.68;94745.09;5039348;28;20189;-67
2021/09/18 04:37:42;;;;;;;25.73;10.57;;;;;;;19.94;74.85;94730.66;5043062;28;20231;-68
2021/09/18 04:40:10;;;;;;;26.87;11.10;;;;;;;19.97;74.96;94722.81;5049145;28;20192;-73
2021/09/18 04:42:37;;;;;;;26.63;11.83;;;;;;;20.13;75.02;94729.19;5051957;28;20574;-72
2021/09/18 04:45:05;;;;;;;22.50;10.10;;;;;;;19.94;75.52;94746.63;5053854;28;20236;-75
2021/09/18 04:47:33;;;;;;;24.20;9.77;;;;;;;19.70;76.58;94772.94;5050287;28;20212;-73
2021/09/18 04:50:00;;;;;;;20.37;9.17;;;;;;;19.41;77.79;94791.41;5042764;28;20216;-73
2021/09/18 04:52:27;;;;;;;25.07;10.30;;;;;;;19.21;79.40;94806.81;5047105;28;20283;-74
2021/09/18 04:54:54;;;;;;;26.50;10.33;;;;;;;19.47;78.99;94832.69;5049300;28;20199;-74
2021/09/18 04:57:21;;;;;;;25.60;11.50;;;;;;;19.34;79.99;94838.91;5049366;28;20219;-74
2021/09/18 04:59:48;;;;;;;27.83;11.00;;;;;;;19.35;79.93;94829.84;5049556;28;20439;-73
2021/09/18 05:02:15;;;;;;;24.10;10.80;;;;;;;19.13;80.24;94820.09;5048707;28;20196;-74
2021/09/18 05:04:42;;;;;;;27.50;11.23;;;;;;;18.93;80.48;94797.56;5048818;28;20586;-73
2021/09/18 05:07:09;;;;;;;18.20;9.07;;;;;;;18.73;79.85;94745.06;5048848;28;20590;-73
2021/09/18 05:09:36;;;;;;;28.60;9.80;;;;;;;18.71;81.00;94755.19;5045866;28;20446;-72
2021/09/18 05:12:03;;;;;;;25.80;10.07;;;;;;;18.91;80.41;94756.47;5051557;28;20538;-71
2021/09/18 05:14:30;;;;;;;21.07;9.77;;;;;;;19.36;78.35;94763.09;5049157;28;20439;-74
2021/09/18 05:16:57;;;;;;;21.57;9.70;;;;;;;19.27;78.80;94761.53;5051660;28;20431;-72
2021/09/18 05:19:23;;;;;;;22.77;10.37;;;;;;;18.75;81.39;94753.50;5052366;28;20470;-73
2021/09/18 05:21:50;;;;;;;20.60;9.70;;;;;;;18.85;81.12;94750.53;5052497;28;20442;-74
2021/09/18 05:24:17;;;;;;;25.60;10.37;;;;;;;19.34;78.89;94775.16;5054701;28;20466;-73
2021/09/18 05:26:44;;;;;;;22.13;9.30;;;;;;;19.54;77.37;94763.88;5054909;28;20439;-72
2021/09/18 05:29:11;;;;;;;23.10;10.17;;;;;;;19.82;76.61;94779.16;5052494;28;20443;-72
2021/09/18 05:31:38;;;;;;;23.83;10.23;;;;;;;19.93;76.26;94779.63;5051923;28;20903;-72
2021/09/18 05:34:04;;;;;;;20.17;10.43;;;;;;;20.05;76.04;94780.53;5051962;28;20457;-73
2021/09/18 05:36:31;;;;;;;25.90;10.90;;;;;;;20.06;76.17;94776.00;5051525;28;20267;-72
2021/09/18 05:38:58;;;;;;;22.80;10.20;;;;;;;20.09;75.72;94789.44;5051792;28;20196;-71
2021/09/18 05:41:25;;;;;;;22.67;10.87;;;;;;;20.17;76.13;94782.56;5051783;28;20461;-72
2021/09/18 05:43:52;;;;;;;26.00;10.50;;;;;;;20.20;75.82;94773.19;5051882;28;20496;-71
2021/09/18 05:46:19;;;;;;;23.77;12.23;;;;;;;20.15;75.49;94758.13;5051979;28;20201;-72
2021/09/18 05:48:46;;;;;;;20.83;10.77;;;;;;;20.40;76.11;94775.13;5036361;28;20193;-68
2021/09/18 05:51:12;;;;;;;30.60;10.50;;;;;;;20.50;75.47;94778.22;5051125;28;20196;-66
2021/09/18 05:53:39;;;;;;;21.13;10.90;;;;;;;20.47;75.45;94775.41;5051166;28;20203;-66
2021/09/18 05:56:06;;;;;;;71.77;46.40;;;;;;;20.42;75.86;94771.03;5051500;28;20210;-66
2021/09/18 05:58:33;;;;;;;30.33;19.33;;;;;;;20.56;74.92;94779.63;5043720;28;20197;-70
2021/09/18 06:01:00;;;;;;;34.20;21.80;;;;;;;20.51;75.43;94787.75;5043174;28;20585;-68
2021/09/18 06:03:27;;;;;;;27.77;14.40;;;;;;;20.48;75.21;94783.09;5052419;28;20201;-67
2021/09/18 06:05:54;;;;;;;25.87;13.27;;;;;;;20.75;75.34;94782.63;5051627;28;20220;-67
2021/09/18 06:08:22;;;;;;;25.70;12.63;;;;;;;20.83;74.85;94792.47;5052680;28;20204;-68
2021/09/18 06:10:49;;;;;;;24.23;12.83;;;;;;;20.70;75.38;94787.38;5051748;28;20296;-68
2021/09/18 06:13:15;;;;;;;29.80;17.10;;;;;;;20.69;76.37;94793.81;5050827;28;20618;-68
2021/09/18 06:15:42;;;;;;;40.90;24.80;;;;;;;20.72;75.13;94801.13;5052204;28;20204;-67
2021/09/18 06:18:09;;;;;;;30.17;13.90;;;;;;;20.89;74.93;94799.16;5051958;28;20291;-69
2021/09/18 06:20:36;;;;;;;27.83;13.17;;;;;;;20.93;74.20;94800.09;5051902;28;20205;-67
2021/09/18 06:23:03;;;;;;;23.23;12.40;;;;;;;20.71;74.95;94807.59;5045303;28;20636;-66
2021/09/18 06:25:30;;;;;;;23.23;13.20;;;;;;;20.75;75.17;94803.94;5036260;28;20227;-67
2021/09/18 06:27:57;;;;;;;26.13;14.07;;;;;;;20.75;74.24;94798.63;5040373;28;20223;-66
2021/09/18 06:30:23;;;;;;;20.83;13.13;;;;;;;20.84;74.57;94807.34;5038724;28;20205;-69
2021/09/18 06:32:50;;;;;;;30.53;14.67;;;;;;;20.81;74.32;94804.53;5034539;28;20588;-70
2021/09/18 06:35:17;;;;;;;28.43;15.43;;;;;;;20.86;75.08;94810.47;5037955;28;20197;-65
2021/09/18 06:37:46;;;;;;;29.03;16.43;;;;;;;20.91;75.06;94807.63;5047152;28;20591;-67
2021/09/18 06:40:17;;;;;;;28.93;16.37;;;;;;;20.93;75.43;94810.75;5044206;28;20194;-68
2021/09/18 06:42:44;;;;;;;27.70;15.27;;;;;;;20.88;76.28;94802.94;5039011;28;20209;-67
2021/09/18 06:45:12;;;;;;;31.47;16.23;;;;;;;21.10;76.18;94805.34;5040872;28;20695;-66
2021/09/18 06:47:40;;;;;;;21.13;13.57;;;;;;;20.78;78.19;94795.31;5042021;28;20201;-66
2021/09/18 06:50:08;;;;;;;24.53;12.40;;;;;;;20.84;74.72;94807.34;5048885;28;20269;-68
2021/09/18 06:52:35;;;;;;;20.77;11.13;;;;;;;20.30;75.01;94810.84;5037201;28;20204;-71
2021/09/18 06:55:03;;;;;;;25.07;11.23;;;;;;;20.57;72.82;94813.09;5036582;28;20197;-68
2021/09/18 06:57:32;;;;;;;25.30;10.80;;;;;;;20.53;71.92;94803.44;5042090;28;20749;-72
2021/09/18 06:59:59;;;;;;;22.37;11.93;;;;;;;20.70;70.93;94806.78;5038880;28;20227;-76
2021/09/18 07:02:26;;;;;;;27.37;12.33;;;;;;;20.65;71.98;94806.19;5031951;28;20717;-71
2021/09/18 07:04:54;;;;;;;26.33;12.40;;;;;;;20.47;72.24;94808.16;5036860;28;20359;-74
2021/09/18 07:07:20;;;;;;;74.00;65.70;;;;;;;20.32;72.88;94826.50;5034937;28;20197;-73
2021/09/18 07:09:47;;;;;;;25.50;12.90;;;;;;;20.49;73.36;94821.91;5037812;28;20193;-75
2021/09/18 07:12:14;;;;;;;22.07;13.00;;;;;;;20.56;72.94;94814.22;5036879;28;20197;-72
2021/09/18 07:14:41;;;;;;;28.00;14.27;;;;;;;20.69;72.59;94809.78;5037222;28;20288;-75
2021/09/18 07:17:08;;;;;;;25.57;13.30;;;;;;;20.42;74.33;94816.28;5030034;28;20201;-72
2021/09/18 07:19:34;;;;;;;31.23;16.67;;;;;;;20.63;73.66;94819.81;5038370;28;20205;-74
2021/09/18 07:22:02;;;;;;;48.83;33.90;;;;;;;20.84;72.24;94812.66;5043881;28;20193;-76
2021/09/18 07:24:32;;;;;;;31.60;20.03;;;;;;;20.81;71.31;94818.66;5037292;28;20213;-75
2021/09/18 07:26:59;;;;;;;22.17;12.87;;;;;;;20.93;71.11;94805.41;5038136;28;20665;-73
2021/09/18 07:29:26;;;;;;;21.00;12.37;;;;;;;21.17;70.61;94814.72;5041068;28;20208;-74
2021/09/18 07:31:54;;;;;;;25.90;12.70;;;;;;;21.14;70.63;94806.28;5036727;28;20204;-74
2021/09/18 07:34:22;;;;;;;23.83;12.13;;;;;;;21.12;73.02;94811.13;5033716;28;20208;-72
2021/09/18 07:36:49;;;;;;;23.80;11.43;;;;;;;21.27;71.25;94809.00;5037762;28;20660;-72
2021/09/18 07:39:16;;;;;;;21.03;11.03;;;;;;;21.54;70.32;94827.16;5039065;28;20198;-72
2021/09/18 07:41:43;;;;;;;19.80;10.90;;;;;;;21.32;70.01;94819.47;5035759;28;20276;-73
2021/09/18 07:44:10;;;;;;;19.73;10.30;;;;;;;21.13;68.91;94836.66;5038745;28;20235;-73
2021/09/18 07:46:38;;;;;;;17.13;10.10;;;;;;;21.06;70.02;94831.06;5047852;28;20666;-75
2021/09/18 07:49:05;;;;;;;22.63;10.70;;;;;;;21.08;70.21;94828.88;5038489;28;20200;-73
2021/09/18 07:51:32;;;;;;;34.97;26.93;;;;;;;21.21;69.79;94820.94;5034114;28;20199;-71
2021/09/18 07:53:59;;;;;;;55.47;49.47;;;;;;;21.07;70.17;94822.00;5035199;28;20276;-73
2021/09/18 07:56:25;;;;;;;24.93;15.90;;;;;;;21.23;70.41;94832.84;5042880;28;20192;-77
2021/09/18 07:58:54;;;;;;;16.30;9.47;;;;;;;21.17;69.37;94816.28;5041519;28;20185;-74
2021/09/18 08:01:21;;;;;;;17.93;10.37;;;;;;;20.86;69.81;94831.78;5042946;28;20200;-74
2021/09/18 08:03:48;;;;;;;19.53;9.93;;;;;;;21.06;68.88;94817.75;5037544;28;20204;-75
2021/09/18 08:06:15;;;;;;;16.17;9.63;;;;;;;21.00;68.78;94827.03;5042081;28;20315;-72
2021/09/18 08:08:42;;;;;;;20.13;9.50;;;;;;;21.21;68.75;94836.94;5036879;28;20195;-73
2021/09/18 08:11:08;;;;;;;15.23;9.23;;;;;;;21.10;68.49;94826.66;5037959;28;20199;-74
2021/09/18 08:13:39;;;;;;;18.87;10.90;;;;;;;21.27;68.37;94830.31;5037770;28;20197;-76
2021/09/18 08:16:06;;;;;;;16.47;9.70;;;;;;;21.24;69.17;94825.66;5046728;28;20247;-73
2021/09/18 08:18:33;;;;;;;16.33;10.43;;;;;;;21.65;68.28;94841.66;5035896;28;20621;-77
2021/09/18 08:21:00;;;;;;;16.17;10.90;;;;;;;21.59;68.32;94821.63;5036138;28;20189;-74
2021/09/18 08:23:27;;;;;;;17.23;10.50;;;;;;;21.37;67.62;94825.38;5037940;28;20211;-75
2021/09/18 08:25:54;;;;;;;18.43;10.50;;;;;;;21.33;69.13;94823.72;5039215;28;20766;-72
2021/09/18 08:28:21;;;;;;;17.00;10.90;;;;;;;21.35;67.40;94824.16;5040275;28;20197;-75
2021/09/18 08:30:48;;;;;;;14.17;10.57;;;;;;;21.33;67.65;94829.81;5041023;28;20192;-75
2021/09/18 08:33:15;;;;;;;17.67;11.20;;;;;;;21.28;68.43;94815.88;5035564;28;20250;-77
2021/09/18 08:35:41;;;;;;;36.33;31.03;;;;;;;21.60;68.43;94839.19;5040390;28;20279;-77
2021/09/18 08:38:08;;;;;;;35.10;27.13;;;;;;;21.51;67.05;94838.47;5039538;28;20893;-74
2021/09/18 08:40:38;;;;;;;20.00;12.03;;;;;;;21.56;65.73;94833.72;5036421;28;20200;-75
2021/09/18 08:43:06;;;;;;;22.93;15.10;;;;;;;21.58;65.80;94841.41;5037150;28;20326;-75
2021/09/18 08:45:34;;;;;;;15.27;12.20;;;;;;;21.64;65.89;94832.09;5037313;28;20217;-77
2021/09/18 08:48:06;;;;;;;33.13;26.17;;;;;;;21.39;66.15;94835.72;5031807;28;20209;-74
2021/09/18 08:50:34;;;;;;;26.17;19.63;;;;;;;21.32;67.33;94832.78;5036247;28;20292;-75
2021/09/18 08:53:01;;;;;;;28.30;25.27;;;;;;;21.52;65.35;94826.69;5044835;28;20301;-72
2021/09/18 08:55:28;;;;;;;22.60;14.73;;;;;;;21.44;67.16;94825.66;5051848;28;20224;-68
2021/09/18 08:57:55;;;;;;;21.57;14.67;;;;;;;21.45;65.86;94837.88;5055992;28;20189;-73
2021/09/18 09:00:31;;;;;;;20.60;14.37;;;;;;;21.62;65.29;94839.66;5057390;28;20202;-71
2021/09/18 09:03:03;;;;;;;21.00;14.33;;;;;;;21.23;65.81;94824.06;5066415;28;20192;-72
2021/09/18 09:05:33;;;;;;;23.77;19.47;;;;;;;21.10;65.80;94855.97;5050749;28;20236;-75
2021/09/18 09:08:07;;;;;;;26.97;21.03;;;;;;;20.89;67.43;94879.06;5037677;28;20229;-71
2021/09/18 09:10:35;;;;;;;24.67;21.60;;;;;;;20.86;67.29;94879.72;5048191;28;20218;-70
2021/09/18 09:13:07;;;;;;;15.83;13.13;;;;;;;20.92;66.64;94877.66;5034733;28;20200;-70
2021/09/18 09:15:36;;;;;;;18.90;12.77;;;;;;;20.41;68.05;94867.97;5036182;28;20221;-72
2021/09/18 09:18:25;;;;;;;18.57;12.07;;;;;;;20.25;70.42;94860.81;5039583;28;20275;-70
2021/09/18 09:21:18;;;;;;;15.93;10.57;;;;;;;20.23;70.27;94861.13;5040610;28;20214;-72
2021/09/18 09:24:03;;;;;;;11.67;9.93;;;;;;;20.40;70.60;94850.41;5036943;28;20201;-70
2021/09/18 09:26:32;;;;;;;17.50;9.90;;;;;;;20.29;70.37;94843.88;5036246;28;20225;-73
2021/09/18 09:28:59;;;;;;;15.33;9.83;;;;;;;20.01;71.58;94853.31;5034814;28;20189;-73
2021/09/18 09:31:27;;;;;;;17.10;10.47;;;;;;;20.08;71.61;94838.44;5039912;28;20212;-65
2021/09/18 09:34:15;;;;;;;21.50;17.53;;;;;;;20.46;71.31;94838.50;5034959;28;20255;-72
2021/09/18 09:36:44;;;;;;;69.83;62.33;;;;;;;20.32;72.12;94839.81;5042889;28;20219;-69
2021/09/18 09:39:15;;;;;;;15.63;12.70;;;;;;;20.40;71.24;94839.00;5033018;28;20201;-68
2021/09/18 09:41:48;;;;;;;23.00;12.03;;;;;;;20.26;71.33;94833.09;5035672;28;20200;-66
2021/09/18 09:44:24;;;;;;;15.60;12.50;;;;;;;20.14;71.91;94841.69;5036028;28;20285;-67
2021/09/18 09:47:09;;;;;;;15.23;13.23;;;;;;;19.98;72.46;94849.38;5032924;28;20331;-70
2021/09/18 09:52:37;;;;;;;22.17;15.13;;;;;;;19.83;73.09;94851.75;5051166;28;20689;-67
2021/09/18 09:55:12;;;;;;;19.97;14.17;;;;;;;19.24;75.08;94877.16;5044926;28;20667;-74
2021/09/18 09:57:41;;;;;;;17.43;14.00;;;;;;;19.44;74.76;94875.81;5032188;28;20288;-75
2021/09/18 10:00:11;;;;;;;19.93;14.87;;;;;;;19.58;74.65;94876.47;5038430;28;20255;-68
2021/09/18 10:02:41;;;;;;;20.83;15.13;;;;;;;19.51;74.93;94873.47;5036077;28;20216;-69
2021/09/18 10:05:14;;;;;;;19.43;14.30;;;;;;;19.50;75.29;94870.03;5037589;28;20307;-69
2021/09/18 10:07:42;;;;;;;20.37;14.90;;;;;;;19.71;73.46;94859.56;5040088;28;20542;-72
2021/09/18 10:10:12;;;;;;;23.83;12.70;;;;;;;19.48;75.05;94876.75;5032690;28;20681;-69
2021/09/18 10:12:40;;;;;;;48.23;43.27;;;;;;;19.42;73.88;94899.25;5038198;28;20442;-74
2021/09/18 10:15:09;;;;;;;25.97;23.27;;;;;;;19.32;75.10;94894.25;5034183;28;20921;-74
2021/09/18 10:17:43;;;;;;;28.43;25.67;;;;;;;19.01;75.30;94900.34;5034440;28;20451;-71
2021/09/18 10:25:38;;;;;;;15.17;12.60;;;;;;;18.74;75.63;94966.16;5043344;28;20942;-69
2021/09/18 10:28:11;;;;;;;16.73;13.07;;;;;;;18.19;77.64;94960.31;5031537;28;20450;-72
2021/09/18 10:30:52;;;;;;;15.13;12.47;;;;;;;17.99;78.79;94963.44;5041106;28;20451;-69
2021/09/18 10:33:37;;;;;;;16.03;13.10;;;;;;;17.62;79.77;94966.34;5037674;28;20498;-64
2021/09/18 10:36:20;;;;;;;18.83;12.90;;;;;;;17.28;81.50;94987.16;5032263;28;20443;-76
2021/09/18 10:38:49;;;;;;;14.40;12.47;;;;;;;17.23;82.78;94994.13;5041386;28;20444;-70
2021/09/18 10:41:24;;;;;;;16.33;12.33;;;;;;;17.24;83.02;94974.47;5039969;28;20448;-71
2021/09/18 10:43:51;;;;;;;18.03;12.37;;;;;;;17.35;82.22;94958.41;5042346;28;20578;-67
2021/09/18 10:46:42;;;;;;;15.73;11.67;;;;;;;17.61;80.99;94948.91;5040014;28;20533;-70
2021/09/18 10:49:33;;;;;;;14.57;11.70;;;;;;;17.94;79.65;94945.75;5042636;28;20438;-69
2021/09/18 10:52:21;;;;;;;62.27;55.57;;;;;;;18.29;78.83;94935.41;5041155;28;21056;-71
2021/09/18 10:55:05;;;;;;;27.50;24.53;;;;;;;18.41;78.08;94933.78;5034228;28;20447;-70
2021/09/18 10:57:48;;;;;;;16.53;11.90;;;;;;;18.47;76.84;94916.66;5040320;28;20453;-73
2021/09/18 11:00:18;;;;;;;14.37;12.10;;;;;;;18.49;76.72;94909.19;5039942;28;20450;-75
2021/09/18 11:02:57;;;;;;;14.40;12.43;;;;;;;18.60;76.95;94897.22;5048302;28;20439;-69
2021/09/18 11:05:29;;;;;;;15.90;13.47;;;;;;;18.61;77.17;94906.75;5051024;28;20478;-68
2021/09/18 11:08:04;;;;;;;19.03;14.00;;;;;;;18.70;76.78;94899.59;5047450;28;20475;-69
2021/09/18 11:10:30;;;;;;;19.80;15.83;;;;;;;18.73;77.19;94893.69;5043740;28;20436;-67
2021/09/18 11:13:10;;;;;;;17.93;15.00;;;;;;;18.68;77.07;94885.88;5043350;28;20534;-68
2021/09/18 11:15:40;;;;;;;15.83;12.90;;;;;;;18.67;76.93;94894.13;5037614;28;20868;-70
2021/09/18 11:18:13;;;;;;;15.13;11.60;;;;;;;18.54;76.60;94902.97;5037720;28;20452;-67
2021/09/18 11:20:41;;;;;;;20.87;14.10;;;;;;;18.40;76.38;94910.97;5043721;28;20451;-70
2021/09/18 11:23:10;;;;;;;10.47;8.60;;;;;;;18.31;75.93;94899.53;5043424;28;20477;-67
2021/09/18 11:25:43;;;;;;;11.40;8.40;;;;;;;18.23;76.15;94890.44;5030227;28;20476;-71
2021/09/18 11:28:12;;;;;;;13.47;8.93;;;;;;;18.37;76.07;94894.88;5038709;28;20844;-71
2021/09/18 11:30:46;;;;;;;13.60;9.60;;;;;;;18.36;75.42;94898.59;5032116;28;20432;-71
2021/09/18 11:33:19;;;;;;;14.17;9.50;;;;;;;18.30;76.06;94900.63;5039576;28;20444;-72
2021/09/18 11:35:55;;;;;;;8.93;7.50;;;;;;;18.32;75.75;94898.44;5031550;28;20440;-71